createdAt,value
2017-04-02T00:00:13.672Z,0
2017-04-02T00:00:45.967Z,0
2017-04-02T00:01:18.271Z,0
2017-04-02T00:01:50.520Z,0
2017-04-02T00:02:22.778Z,0
2017-04-02T00:02:55.028Z,0
2017-04-02T00:03:27.257Z,0
2017-04-02T00:03:59.498Z,0
2017-04-02T00:04:31.759Z,0
2017-04-02T00:05:03.992Z,0
2017-04-02T00:05:36.253Z,0
2017-04-02T00:06:09.425Z,0
2017-04-02T00:06:41.672Z,0
2017-04-02T00:07:13.902Z,0
2017-04-02T00:07:46.808Z,0
2017-04-02T00:08:19.064Z,0
2017-04-02T00:08:52.244Z,0
2017-04-02T00:09:24.483Z,0
2017-04-02T00:09:56.768Z,0
2017-04-02T00:10:29.026Z,0
2017-04-02T00:11:01.287Z,0
2017-04-02T00:11:33.535Z,0
2017-04-02T00:12:05.843Z,0
2017-04-02T00:12:38.159Z,0
2017-04-02T00:13:10.459Z,0
2017-04-02T00:13:42.762Z,0
2017-04-02T00:14:15.067Z,0
2017-04-02T00:14:47.383Z,0
2017-04-02T00:15:19.684Z,0
2017-04-02T00:15:52.005Z,0
2017-04-02T00:16:24.320Z,0
2017-04-02T00:16:56.637Z,0
2017-04-02T00:17:28.935Z,0
2017-04-02T00:18:01.230Z,0
2017-04-02T00:18:33.533Z,0
2017-04-02T00:19:05.835Z,0
2017-04-02T00:19:38.134Z,0
2017-04-02T00:20:10.451Z,0
2017-04-02T00:20:42.763Z,0
2017-04-02T00:21:15.078Z,0
2017-04-02T00:21:47.380Z,0
2017-04-02T00:22:19.688Z,0
2017-04-02T00:22:51.990Z,0
2017-04-02T00:23:24.289Z,0
2017-04-02T00:23:56.597Z,0
2017-04-02T00:24:28.901Z,0
2017-04-02T00:25:01.207Z,0
2017-04-02T00:25:33.509Z,0
2017-04-02T00:26:05.799Z,0
2017-04-02T00:26:38.112Z,0
2017-04-02T00:27:10.409Z,0
2017-04-02T00:27:42.711Z,0
2017-04-02T00:28:15.010Z,0
2017-04-02T00:28:47.350Z,0
2017-04-02T00:29:19.654Z,0
2017-04-02T00:29:51.957Z,0
2017-04-02T00:30:24.263Z,0
2017-04-02T00:30:56.563Z,0
2017-04-02T00:31:28.870Z,0
2017-04-02T00:32:01.173Z,0
2017-04-02T00:32:33.468Z,0
2017-04-02T00:33:05.766Z,0
2017-04-02T00:33:38.083Z,0
2017-04-02T00:34:10.389Z,0
2017-04-02T00:34:42.715Z,0
2017-04-02T00:35:15.017Z,0
2017-04-02T00:35:47.320Z,0
2017-04-02T00:36:19.622Z,0
2017-04-02T00:36:51.949Z,0
2017-04-02T00:37:24.254Z,0
2017-04-02T00:37:56.555Z,0
2017-04-02T00:38:28.876Z,0
2017-04-02T00:39:01.176Z,0
2017-04-02T00:39:33.486Z,0
2017-04-02T00:40:05.788Z,0
2017-04-02T00:40:38.099Z,0
2017-04-02T00:41:10.407Z,0
2017-04-02T00:41:42.724Z,0
2017-04-02T00:42:14.993Z,0
2017-04-02T00:42:47.361Z,0
2017-04-02T00:43:19.590Z,0
2017-04-02T00:43:51.863Z,0
2017-04-02T00:44:24.856Z,0
2017-04-02T00:44:57.765Z,0
2017-04-02T00:45:30.034Z,0
2017-04-02T00:46:02.269Z,0
2017-04-02T00:46:34.502Z,0
2017-04-02T00:47:06.818Z,0
2017-04-02T00:47:39.090Z,0
2017-04-02T00:48:11.347Z,0
2017-04-02T00:48:43.614Z,0
2017-04-02T00:49:15.865Z,0
2017-04-02T00:49:48.108Z,0
2017-04-02T00:50:20.341Z,0
2017-04-02T00:50:52.723Z,0
2017-04-02T00:51:24.957Z,0
2017-04-02T00:51:57.247Z,0
2017-04-02T00:52:29.544Z,0
2017-04-02T00:53:01.853Z,0
2017-04-02T00:53:34.219Z,0
2017-04-02T00:54:06.535Z,0
2017-04-02T00:54:38.862Z,0
2017-04-02T00:55:11.192Z,0
2017-04-02T00:55:43.492Z,0
2017-04-02T00:56:15.809Z,0
2017-04-02T00:56:48.105Z,0
2017-04-02T00:57:20.436Z,0
2017-04-02T00:57:52.747Z,0
2017-04-02T00:58:25.068Z,0
2017-04-02T00:58:57.373Z,0
2017-04-02T00:59:29.672Z,0
2017-04-02T01:00:01.980Z,0
2017-04-02T01:00:34.276Z,0
2017-04-02T01:01:06.595Z,0
2017-04-02T01:01:38.945Z,0
2017-04-02T01:02:11.250Z,0
2017-04-02T01:02:43.559Z,0
2017-04-02T01:03:15.856Z,0
2017-04-02T01:03:48.162Z,0
2017-04-02T01:04:20.457Z,0
2017-04-02T01:04:52.752Z,0
2017-04-02T01:05:25.054Z,0
2017-04-02T01:05:57.364Z,0
2017-04-02T01:06:29.660Z,0
2017-04-02T01:07:01.970Z,0
2017-04-02T01:07:34.264Z,0
2017-04-02T01:08:06.569Z,0
2017-04-02T01:08:38.870Z,0
2017-04-02T01:09:11.174Z,0
2017-04-02T01:09:43.508Z,0
2017-04-02T01:10:15.813Z,0
2017-04-02T01:10:48.115Z,0
2017-04-02T01:11:20.428Z,0
2017-04-02T01:11:52.745Z,0
2017-04-02T01:12:25.075Z,0
2017-04-02T01:12:57.382Z,0
2017-04-02T01:13:29.694Z,0
2017-04-02T01:14:02.009Z,0
2017-04-02T01:14:34.307Z,0
2017-04-02T01:15:06.598Z,0
2017-04-02T01:15:38.912Z,0
2017-04-02T01:16:11.220Z,0
2017-04-02T01:16:43.531Z,0
2017-04-02T01:17:15.836Z,0
2017-04-02T01:17:48.155Z,0
2017-04-02T01:18:20.480Z,0
2017-04-02T01:18:52.780Z,0
2017-04-02T01:19:25.086Z,0
2017-04-02T01:19:57.384Z,0
2017-04-02T01:20:29.701Z,0
2017-04-02T01:21:02.011Z,0
2017-04-02T01:21:34.314Z,0
2017-04-02T01:22:06.632Z,0
2017-04-02T01:22:38.943Z,0
2017-04-02T01:23:11.245Z,0
2017-04-02T01:23:43.555Z,0
2017-04-02T01:24:15.857Z,0
2017-04-02T01:24:48.163Z,0
2017-04-02T01:25:20.496Z,0
2017-04-02T01:25:52.799Z,0
2017-04-02T01:26:25.104Z,0
2017-04-02T01:26:57.408Z,0
2017-04-02T01:27:29.708Z,0
2017-04-02T01:28:02.032Z,0
2017-04-02T01:28:34.331Z,0
2017-04-02T01:29:06.637Z,0
2017-04-02T01:29:38.936Z,0
2017-04-02T01:30:11.242Z,0
2017-04-02T01:30:43.541Z,0
2017-04-02T01:31:15.850Z,0
2017-04-02T01:31:48.169Z,0
2017-04-02T01:32:20.485Z,0
2017-04-02T01:32:52.835Z,0
2017-04-02T01:33:25.145Z,0
2017-04-02T01:33:57.466Z,0
2017-04-02T01:34:29.759Z,0
2017-04-02T01:35:02.074Z,0
2017-04-02T01:35:34.385Z,0
2017-04-02T01:36:06.680Z,0
2017-04-02T01:36:38.981Z,0
2017-04-02T01:37:11.286Z,0
2017-04-02T01:37:43.601Z,0
2017-04-02T01:38:15.911Z,0
2017-04-02T01:38:48.207Z,0
2017-04-02T01:39:20.507Z,0
2017-04-02T01:39:52.808Z,0
2017-04-02T01:40:25.105Z,0
2017-04-02T01:40:57.409Z,0
2017-04-02T01:41:29.715Z,0
2017-04-02T01:42:02.010Z,0
2017-04-02T01:42:34.310Z,0
2017-04-02T01:43:06.615Z,0
2017-04-02T01:43:38.923Z,0
2017-04-02T01:44:11.258Z,0
2017-04-02T01:44:43.561Z,0
2017-04-02T01:45:15.859Z,0
2017-04-02T01:45:48.163Z,0
2017-04-02T01:46:20.471Z,0
2017-04-02T01:46:52.776Z,0
2017-04-02T01:47:25.100Z,0
2017-04-02T01:47:57.405Z,0
2017-04-02T01:48:29.719Z,0
2017-04-02T01:49:02.047Z,0
2017-04-02T01:49:34.346Z,0
2017-04-02T01:50:06.638Z,0
2017-04-02T01:50:38.936Z,0
2017-04-02T01:51:11.252Z,0
2017-04-02T01:51:43.553Z,0
2017-04-02T01:52:15.851Z,0
2017-04-02T01:52:48.170Z,0
2017-04-02T01:53:20.484Z,0
2017-04-02T01:53:52.793Z,0
2017-04-02T01:54:25.095Z,0
2017-04-02T01:54:57.397Z,0
2017-04-02T01:55:29.705Z,0
2017-04-02T01:56:02.019Z,0
2017-04-02T01:56:34.321Z,0
2017-04-02T01:57:06.625Z,0
2017-04-02T01:57:38.920Z,0
2017-04-02T01:58:11.213Z,0
2017-04-02T01:58:43.527Z,0
2017-04-02T01:59:15.834Z,0
2017-04-02T01:59:48.140Z,0
2017-04-02T02:00:20.444Z,0
2017-04-02T02:00:52.757Z,0
2017-04-02T02:01:25.047Z,0
2017-04-02T02:01:57.371Z,0
2017-04-02T02:02:29.669Z,0
2017-04-02T02:03:01.995Z,0
2017-04-02T02:03:34.340Z,0
2017-04-02T02:04:06.638Z,0
2017-04-02T02:04:38.951Z,0
2017-04-02T02:05:11.258Z,0
2017-04-02T02:05:43.564Z,0
2017-04-02T02:06:15.886Z,0
2017-04-02T02:06:48.188Z,0
2017-04-02T02:07:20.489Z,0
2017-04-02T02:07:52.799Z,0
2017-04-02T02:08:25.103Z,0
2017-04-02T02:08:57.400Z,0
2017-04-02T02:09:29.705Z,0
2017-04-02T02:10:02.026Z,0
2017-04-02T02:10:34.330Z,0
2017-04-02T02:11:06.645Z,0
2017-04-02T02:11:38.949Z,0
2017-04-02T02:12:11.220Z,0
2017-04-02T02:12:43.473Z,0
2017-04-02T02:13:15.705Z,0
2017-04-02T02:13:48.722Z,0
2017-04-02T02:14:20.976Z,0
2017-04-02T02:14:53.706Z,0
2017-04-02T02:15:25.977Z,0
2017-04-02T02:15:58.220Z,0
2017-04-02T02:16:31.365Z,0
2017-04-02T02:17:03.615Z,0
2017-04-02T02:17:35.872Z,0
2017-04-02T02:18:08.110Z,0
2017-04-02T02:18:40.352Z,0
2017-04-02T02:19:12.605Z,0
2017-04-02T02:19:44.873Z,0
2017-04-02T02:20:17.182Z,0
2017-04-02T02:20:49.459Z,0
2017-04-02T02:21:21.719Z,0
2017-04-02T02:21:54.006Z,0
2017-04-02T02:22:26.302Z,0
2017-04-02T02:22:58.603Z,0
2017-04-02T02:23:30.902Z,0
2017-04-02T02:24:03.198Z,0
2017-04-02T02:24:35.513Z,0
2017-04-02T02:25:07.822Z,0
2017-04-02T02:25:40.126Z,0
2017-04-02T02:26:12.468Z,0
2017-04-02T02:26:44.780Z,0
2017-04-02T02:27:17.094Z,0
2017-04-02T02:27:49.398Z,0
2017-04-02T02:28:21.693Z,0
2017-04-02T02:28:53.996Z,0
2017-04-02T02:29:26.295Z,0
2017-04-02T02:29:58.597Z,0
2017-04-02T02:30:30.914Z,0
2017-04-02T02:31:03.219Z,0
2017-04-02T02:31:35.519Z,0
2017-04-02T02:32:07.817Z,0
2017-04-02T02:32:40.116Z,0
2017-04-02T02:33:12.418Z,0
2017-04-02T02:33:44.722Z,0
2017-04-02T02:34:17.033Z,0
2017-04-02T02:34:49.361Z,0
2017-04-02T02:35:21.664Z,0
2017-04-02T02:35:53.977Z,0
2017-04-02T02:36:26.281Z,0
2017-04-02T02:36:58.587Z,0
2017-04-02T02:37:30.880Z,0
2017-04-02T02:38:03.187Z,0
2017-04-02T02:38:35.496Z,0
2017-04-02T02:39:07.803Z,0
2017-04-02T02:39:40.131Z,0
2017-04-02T02:40:12.429Z,0
2017-04-02T02:40:44.729Z,0
2017-04-02T02:41:17.034Z,0
2017-04-02T02:41:49.331Z,0
2017-04-02T02:42:21.633Z,0
2017-04-02T02:42:53.935Z,0
2017-04-02T02:43:26.233Z,0
2017-04-02T02:43:58.586Z,0
2017-04-02T02:44:30.888Z,0
2017-04-02T02:45:03.177Z,0
2017-04-02T02:45:35.488Z,0
2017-04-02T02:46:07.794Z,0
2017-04-02T02:46:40.090Z,0
2017-04-02T02:47:12.401Z,0
2017-04-02T02:47:44.716Z,0
2017-04-02T02:48:17.011Z,0
2017-04-02T02:48:49.319Z,0
2017-04-02T02:49:21.644Z,0
2017-04-02T02:49:53.936Z,0
2017-04-02T02:50:26.243Z,0
2017-04-02T02:50:58.537Z,0
2017-04-02T02:51:30.839Z,0
2017-04-02T02:52:03.134Z,0
2017-04-02T02:52:35.422Z,0
2017-04-02T02:53:07.725Z,0
2017-04-02T02:53:40.033Z,0
2017-04-02T02:54:12.342Z,0
2017-04-02T02:54:44.648Z,0
2017-04-02T02:55:16.941Z,0
2017-04-02T02:55:49.240Z,0
2017-04-02T02:56:21.535Z,0
2017-04-02T02:56:53.837Z,0
2017-04-02T02:57:26.148Z,0
2017-04-02T02:57:58.516Z,0
2017-04-02T02:58:30.829Z,0
2017-04-02T02:59:03.146Z,0
2017-04-02T02:59:35.446Z,0
2017-04-02T03:00:07.759Z,0
2017-04-02T03:00:40.057Z,0
2017-04-02T03:01:12.363Z,0
2017-04-02T03:01:44.670Z,0
2017-04-02T03:02:16.974Z,0
2017-04-02T03:02:49.278Z,0
2017-04-02T03:03:21.604Z,0
2017-04-02T03:03:53.957Z,0
2017-04-02T03:04:26.256Z,0
2017-04-02T03:04:58.559Z,0
2017-04-02T03:05:30.862Z,0
2017-04-02T03:06:03.168Z,0
2017-04-02T03:06:35.460Z,0
2017-04-02T03:07:07.764Z,0
2017-04-02T03:07:40.057Z,0
2017-04-02T03:08:12.382Z,0
2017-04-02T03:08:44.681Z,0
2017-04-02T03:09:17.039Z,0
2017-04-02T03:09:49.344Z,0
2017-04-02T03:10:21.651Z,0
2017-04-02T03:10:53.998Z,0
2017-04-02T03:11:26.306Z,0
2017-04-02T03:11:58.615Z,0
2017-04-02T03:12:30.914Z,0
2017-04-02T03:13:03.210Z,0
2017-04-02T03:13:35.527Z,0
2017-04-02T03:14:07.839Z,0
2017-04-02T03:14:40.155Z,0
2017-04-02T03:15:12.454Z,0
2017-04-02T03:15:44.760Z,0
2017-04-02T03:16:17.064Z,0
2017-04-02T03:16:49.376Z,0
2017-04-02T03:17:21.688Z,0
2017-04-02T03:17:54.015Z,0
2017-04-02T03:18:26.314Z,0
2017-04-02T03:18:58.619Z,0
2017-04-02T03:19:30.925Z,0
2017-04-02T03:20:03.241Z,0
2017-04-02T03:20:35.545Z,0
2017-04-02T03:21:07.839Z,0
2017-04-02T03:21:40.142Z,0
2017-04-02T03:22:12.444Z,0
2017-04-02T03:22:44.758Z,0
2017-04-02T03:23:17.095Z,0
2017-04-02T03:23:49.408Z,0
2017-04-02T03:24:21.763Z,0
2017-04-02T03:24:54.060Z,0
2017-04-02T03:25:26.375Z,0
2017-04-02T03:25:58.687Z,0
2017-04-02T03:26:31.002Z,0
2017-04-02T03:27:03.307Z,0
2017-04-02T03:27:35.618Z,0
2017-04-02T03:28:07.930Z,0
2017-04-02T03:28:40.221Z,0
2017-04-02T03:29:12.516Z,0
2017-04-02T03:29:44.822Z,0
2017-04-02T03:30:17.120Z,0
2017-04-02T03:30:49.422Z,0
2017-04-02T03:31:21.737Z,0
2017-04-02T03:31:54.070Z,0
2017-04-02T03:32:26.375Z,0
2017-04-02T03:32:58.673Z,0
2017-04-02T03:33:30.969Z,0
2017-04-02T03:34:03.292Z,0
2017-04-02T03:34:35.596Z,0
2017-04-02T03:35:07.912Z,0
2017-04-02T03:35:40.212Z,0
2017-04-02T03:36:12.505Z,0
2017-04-02T03:36:44.801Z,0
2017-04-02T03:37:17.109Z,0
2017-04-02T03:37:49.402Z,0
2017-04-02T03:38:21.706Z,0
2017-04-02T03:38:54.010Z,0
2017-04-02T03:39:26.319Z,0
2017-04-02T03:39:58.616Z,0
2017-04-02T03:40:30.920Z,0
2017-04-02T03:41:03.230Z,0
2017-04-02T03:41:35.533Z,0
2017-04-02T03:42:07.831Z,0
2017-04-02T03:42:40.137Z,0
2017-04-02T03:43:12.445Z,0
2017-04-02T03:43:44.738Z,0
2017-04-02T03:44:17.036Z,0
2017-04-02T03:44:49.348Z,0
2017-04-02T03:45:21.654Z,0
2017-04-02T03:45:53.964Z,0
2017-04-02T03:46:26.267Z,0
2017-04-02T03:46:58.623Z,0
2017-04-02T03:47:30.926Z,0
2017-04-02T03:48:03.231Z,0
2017-04-02T03:48:35.527Z,0
2017-04-02T03:49:07.843Z,0
2017-04-02T03:49:40.148Z,0
2017-04-02T03:50:12.451Z,0
2017-04-02T03:50:44.764Z,0
2017-04-02T03:51:17.063Z,0
2017-04-02T03:51:49.358Z,0
2017-04-02T03:52:21.601Z,0
2017-04-02T03:52:53.862Z,0
2017-04-02T03:53:26.094Z,0
2017-04-02T03:53:58.914Z,0
2017-04-02T03:54:31.158Z,0
2017-04-02T03:55:03.406Z,0
2017-04-02T03:55:35.659Z,0
2017-04-02T03:56:07.917Z,0
2017-04-02T03:56:40.257Z,0
2017-04-02T03:57:12.510Z,0
2017-04-02T03:57:44.803Z,0
2017-04-02T03:58:17.052Z,0
2017-04-02T03:58:49.307Z,0
2017-04-02T03:59:21.669Z,0
2017-04-02T03:59:54.994Z,0
2017-04-02T04:00:27.250Z,0
2017-04-02T04:00:59.498Z,0
2017-04-02T04:01:31.786Z,0
2017-04-02T04:02:04.035Z,0
2017-04-02T04:02:36.277Z,0
2017-04-02T04:03:09.406Z,0
2017-04-02T04:03:41.657Z,0
2017-04-02T04:04:13.912Z,0
2017-04-02T04:04:46.167Z,0
2017-04-02T04:05:18.417Z,0
2017-04-02T04:05:50.671Z,0
2017-04-02T04:06:22.939Z,0
2017-04-02T04:06:55.184Z,0
2017-04-02T04:07:27.444Z,0
2017-04-02T04:07:59.694Z,0
2017-04-02T04:08:31.944Z,0
2017-04-02T04:09:04.178Z,0
2017-04-02T04:09:36.421Z,0
2017-04-02T04:10:08.657Z,0
2017-04-02T04:10:41.825Z,0
2017-04-02T04:11:14.079Z,0
2017-04-02T04:11:46.325Z,0
2017-04-02T04:12:18.635Z,0
2017-04-02T04:12:50.933Z,0
2017-04-02T04:13:23.242Z,0
2017-04-02T04:13:55.535Z,0
2017-04-02T04:14:27.843Z,0
2017-04-02T04:15:00.202Z,0
2017-04-02T04:15:32.532Z,0
2017-04-02T04:16:04.844Z,0
2017-04-02T04:16:37.151Z,0
2017-04-02T04:17:09.465Z,0
2017-04-02T04:17:41.764Z,0
2017-04-02T04:18:14.061Z,0
2017-04-02T04:18:46.359Z,0
2017-04-02T04:19:18.667Z,0
2017-04-02T04:19:50.985Z,0
2017-04-02T04:20:23.291Z,0
2017-04-02T04:20:55.584Z,0
2017-04-02T04:21:27.892Z,0
2017-04-02T04:22:00.180Z,0
2017-04-02T04:22:32.540Z,0
2017-04-02T04:23:04.802Z,0
2017-04-02T04:23:37.040Z,0
2017-04-02T04:24:09.293Z,0
2017-04-02T04:24:41.539Z,0
2017-04-02T04:25:13.790Z,0
2017-04-02T04:25:46.030Z,0
2017-04-02T04:26:18.278Z,0
2017-04-02T04:26:50.538Z,0
2017-04-02T04:27:22.802Z,0
2017-04-02T04:27:55.055Z,0
2017-04-02T04:28:28.266Z,0
2017-04-02T04:29:00.509Z,0
2017-04-02T04:29:32.780Z,0
2017-04-02T04:30:05.144Z,0
2017-04-02T04:30:37.390Z,0
2017-04-02T04:31:09.631Z,0
2017-04-02T04:31:41.884Z,0
2017-04-02T04:32:14.187Z,0
2017-04-02T04:32:46.493Z,0
2017-04-02T04:33:18.807Z,0
2017-04-02T04:33:51.096Z,0
2017-04-02T04:34:23.385Z,0
2017-04-02T04:34:55.686Z,0
2017-04-02T04:35:27.989Z,0
2017-04-02T04:36:00.291Z,0
2017-04-02T04:36:32.587Z,0
2017-04-02T04:37:04.892Z,0
2017-04-02T04:37:37.177Z,0
2017-04-02T04:38:09.488Z,0
2017-04-02T04:38:41.794Z,0
2017-04-02T04:39:14.097Z,0
2017-04-02T04:39:46.400Z,0
2017-04-02T04:40:18.745Z,0
2017-04-02T04:40:51.050Z,0
2017-04-02T04:41:23.372Z,0
2017-04-02T04:41:55.676Z,0
2017-04-02T04:42:27.991Z,0
2017-04-02T04:43:00.298Z,0
2017-04-02T04:43:32.645Z,0
2017-04-02T04:44:04.950Z,0
2017-04-02T04:44:37.252Z,0
2017-04-02T04:45:09.567Z,0
2017-04-02T04:45:41.869Z,0
2017-04-02T04:46:14.176Z,0
2017-04-02T04:46:46.483Z,0
2017-04-02T04:47:18.828Z,0
2017-04-02T04:47:51.121Z,0
2017-04-02T04:48:23.434Z,0
2017-04-02T04:48:55.734Z,0
2017-04-02T04:49:28.039Z,0
2017-04-02T04:50:00.349Z,0
2017-04-02T04:50:32.640Z,0
2017-04-02T04:51:04.945Z,0
2017-04-02T04:51:37.241Z,0
2017-04-02T04:52:09.547Z,0
2017-04-02T04:52:41.850Z,0
2017-04-02T04:53:14.154Z,0
2017-04-02T04:53:46.447Z,0
2017-04-02T04:54:18.739Z,0
2017-04-02T04:54:51.037Z,0
2017-04-02T04:55:23.350Z,0
2017-04-02T04:55:55.659Z,0
2017-04-02T04:56:27.956Z,0
2017-04-02T04:57:00.258Z,0
2017-04-02T04:57:32.568Z,0
2017-04-02T04:58:04.881Z,0
2017-04-02T04:58:37.189Z,0
2017-04-02T04:59:09.498Z,0
2017-04-02T04:59:41.813Z,0
2017-04-02T05:00:14.114Z,0
2017-04-02T05:00:46.422Z,0
2017-04-02T05:01:18.758Z,0
2017-04-02T05:01:51.066Z,0
2017-04-02T05:02:23.376Z,0
2017-04-02T05:02:55.692Z,0
2017-04-02T05:03:27.989Z,0
2017-04-02T05:04:00.294Z,0
2017-04-02T05:04:32.600Z,0
2017-04-02T05:05:04.940Z,0
2017-04-02T05:05:37.264Z,0
2017-04-02T05:06:09.552Z,0
2017-04-02T05:06:41.868Z,0
2017-04-02T05:07:14.167Z,0
2017-04-02T05:07:46.479Z,0
2017-04-02T05:08:18.774Z,0
2017-04-02T05:08:51.098Z,0
2017-04-02T05:09:23.401Z,0
2017-04-02T05:09:55.705Z,0
2017-04-02T05:10:28.007Z,0
2017-04-02T05:11:00.319Z,0
2017-04-02T05:11:32.625Z,0
2017-04-02T05:12:04.887Z,0
2017-04-02T05:12:37.144Z,0
2017-04-02T05:13:09.382Z,0
2017-04-02T05:13:42.349Z,0
2017-04-02T05:14:14.602Z,0
2017-04-02T05:14:46.843Z,0
2017-04-02T05:15:19.091Z,0
2017-04-02T05:15:51.380Z,0
2017-04-02T05:16:24.495Z,0
2017-04-02T05:16:56.780Z,0
2017-04-02T05:17:29.067Z,0
2017-04-02T05:18:01.326Z,0
2017-04-02T05:18:33.584Z,0
2017-04-02T05:19:05.844Z,0
2017-04-02T05:19:38.970Z,0
2017-04-02T05:20:11.243Z,0
2017-04-02T05:20:43.494Z,0
2017-04-02T05:21:15.757Z,0
2017-04-02T05:21:48.022Z,0
2017-04-02T05:22:20.312Z,0
2017-04-02T05:22:52.608Z,5
2017-04-02T05:23:24.924Z,5
2017-04-02T05:23:57.222Z,5
2017-04-02T05:24:29.515Z,5
2017-04-02T05:25:01.827Z,5
2017-04-02T05:25:34.130Z,5
2017-04-02T05:26:06.439Z,5
2017-04-02T05:26:38.740Z,5
2017-04-02T05:27:11.042Z,5
2017-04-02T05:27:43.394Z,5
2017-04-02T05:28:15.701Z,5
2017-04-02T05:28:48.011Z,5
2017-04-02T05:29:20.370Z,5
2017-04-02T05:29:52.689Z,5
2017-04-02T05:30:25.007Z,5
2017-04-02T05:30:57.296Z,5
2017-04-02T05:31:29.606Z,5
2017-04-02T05:32:01.906Z,5
2017-04-02T05:32:34.170Z,5
2017-04-02T05:33:06.449Z,5
2017-04-02T05:33:38.697Z,5
2017-04-02T05:34:10.940Z,5
2017-04-02T05:34:43.182Z,5
2017-04-02T05:35:16.285Z,5
2017-04-02T05:35:49.464Z,5
2017-04-02T05:36:22.444Z,5
2017-04-02T05:36:54.687Z,5
2017-04-02T05:37:26.981Z,5
2017-04-02T05:37:59.252Z,5
2017-04-02T05:38:31.507Z,5
2017-04-02T05:39:03.753Z,5
2017-04-02T05:39:36.001Z,5
2017-04-02T05:40:08.247Z,5
2017-04-02T05:40:40.490Z,5
2017-04-02T05:41:12.727Z,5
2017-04-02T05:41:45.002Z,5
2017-04-02T05:42:17.293Z,5
2017-04-02T05:42:49.600Z,5
2017-04-02T05:43:21.914Z,5
2017-04-02T05:43:54.218Z,10
2017-04-02T05:44:26.518Z,10
2017-04-02T05:44:58.824Z,10
2017-04-02T05:45:31.127Z,10
2017-04-02T05:46:03.449Z,10
2017-04-02T05:46:35.767Z,10
2017-04-02T05:47:08.071Z,10
2017-04-02T05:47:40.374Z,10
2017-04-02T05:48:12.689Z,10
2017-04-02T05:48:44.978Z,10
2017-04-02T05:49:17.277Z,10
2017-04-02T05:49:49.576Z,10
2017-04-02T05:50:21.866Z,10
2017-04-02T05:50:54.168Z,10
2017-04-02T05:51:26.488Z,10
2017-04-02T05:51:58.801Z,10
2017-04-02T05:52:31.103Z,10
2017-04-02T05:53:03.404Z,10
2017-04-02T05:53:35.704Z,10
2017-04-02T05:54:08.065Z,10
2017-04-02T05:54:40.365Z,10
2017-04-02T05:55:12.688Z,10
2017-04-02T05:55:44.997Z,10
2017-04-02T05:56:17.304Z,10
2017-04-02T05:56:49.610Z,10
2017-04-02T05:57:21.910Z,10
2017-04-02T05:57:54.224Z,10
2017-04-02T05:58:26.529Z,10
2017-04-02T05:58:58.837Z,10
2017-04-02T05:59:31.145Z,10
2017-04-02T06:00:03.462Z,10
2017-04-02T06:00:35.780Z,10
2017-04-02T06:01:08.093Z,10
2017-04-02T06:01:40.428Z,10
2017-04-02T06:02:12.732Z,10
2017-04-02T06:02:45.027Z,10
2017-04-02T06:03:17.333Z,10
2017-04-02T06:03:49.639Z,10
2017-04-02T06:04:21.942Z,15
2017-04-02T06:04:54.251Z,15
2017-04-02T06:05:26.557Z,15
2017-04-02T06:05:58.882Z,15
2017-04-02T06:06:31.192Z,15
2017-04-02T06:07:03.496Z,15
2017-04-02T06:07:35.794Z,15
2017-04-02T06:08:08.092Z,15
2017-04-02T06:08:40.383Z,15
2017-04-02T06:09:12.681Z,15
2017-04-02T06:09:44.970Z,15
2017-04-02T06:10:17.290Z,15
2017-04-02T06:10:49.598Z,15
2017-04-02T06:11:21.906Z,15
2017-04-02T06:11:54.213Z,15
2017-04-02T06:12:26.512Z,15
2017-04-02T06:12:58.827Z,15
2017-04-02T06:13:31.142Z,15
2017-04-02T06:14:03.448Z,15
2017-04-02T06:14:35.759Z,15
2017-04-02T06:15:08.062Z,15
2017-04-02T06:15:40.379Z,20
2017-04-02T06:16:12.700Z,20
2017-04-02T06:16:45.001Z,20
2017-04-02T06:17:17.303Z,20
2017-04-02T06:17:49.603Z,20
2017-04-02T06:18:21.897Z,20
2017-04-02T06:18:54.198Z,20
2017-04-02T06:19:26.511Z,20
2017-04-02T06:19:58.809Z,20
2017-04-02T06:20:31.110Z,20
2017-04-02T06:21:03.420Z,20
2017-04-02T06:21:35.769Z,20
2017-04-02T06:22:08.091Z,20
2017-04-02T06:22:40.394Z,20
2017-04-02T06:23:12.705Z,20
2017-04-02T06:23:45.042Z,25
2017-04-02T06:24:17.378Z,25
2017-04-02T06:24:49.680Z,25
2017-04-02T06:25:21.975Z,25
2017-04-02T06:25:54.293Z,25
2017-04-02T06:26:26.600Z,25
2017-04-02T06:26:58.906Z,25
2017-04-02T06:27:31.219Z,25
2017-04-02T06:28:03.531Z,25
2017-04-02T06:28:35.824Z,25
2017-04-02T06:29:08.147Z,25
2017-04-02T06:29:40.451Z,25
2017-04-02T06:30:12.753Z,25
2017-04-02T06:30:45.053Z,25
2017-04-02T06:31:17.351Z,25
2017-04-02T06:31:49.629Z,25
2017-04-02T06:32:21.881Z,25
2017-04-02T06:32:54.136Z,25
2017-04-02T06:33:26.384Z,25
2017-04-02T06:33:58.615Z,25
2017-04-02T06:34:31.422Z,25
2017-04-02T06:35:03.672Z,25
2017-04-02T06:35:35.924Z,25
2017-04-02T06:36:08.163Z,25
2017-04-02T06:36:40.403Z,25
2017-04-02T06:37:12.671Z,30
2017-04-02T06:37:45.918Z,30
2017-04-02T06:38:18.180Z,30
2017-04-02T06:38:50.468Z,30
2017-04-02T06:39:22.716Z,35
2017-04-02T06:39:54.958Z,35
2017-04-02T06:40:27.211Z,35
2017-04-02T06:41:00.393Z,35
2017-04-02T06:41:32.647Z,35
2017-04-02T06:42:04.948Z,35
2017-04-02T06:42:37.245Z,35
2017-04-02T06:43:09.552Z,35
2017-04-02T06:43:41.874Z,35
2017-04-02T06:44:14.177Z,35
2017-04-02T06:44:46.478Z,40
2017-04-02T06:45:18.776Z,40
2017-04-02T06:45:51.077Z,40
2017-04-02T06:46:23.384Z,40
2017-04-02T06:46:55.705Z,40
2017-04-02T06:47:28.009Z,40
2017-04-02T06:48:00.318Z,40
2017-04-02T06:48:32.616Z,40
2017-04-02T06:49:04.911Z,40
2017-04-02T06:49:37.208Z,40
2017-04-02T06:50:09.521Z,40
2017-04-02T06:50:41.835Z,40
2017-04-02T06:51:14.135Z,40
2017-04-02T06:51:46.426Z,40
2017-04-02T06:52:18.688Z,40
2017-04-02T06:52:50.922Z,40
2017-04-02T06:53:23.290Z,40
2017-04-02T06:53:55.525Z,35
2017-04-02T06:54:27.760Z,35
2017-04-02T06:55:00.052Z,35
2017-04-02T06:55:32.293Z,35
2017-04-02T06:56:04.527Z,35
2017-04-02T06:56:36.775Z,35
2017-04-02T06:57:09.021Z,35
2017-04-02T06:57:41.283Z,35
2017-04-02T06:58:13.557Z,40
2017-04-02T06:58:45.806Z,40
2017-04-02T06:59:18.937Z,40
2017-04-02T06:59:51.191Z,40
2017-04-02T07:00:23.449Z,40
2017-04-02T07:00:55.735Z,40
2017-04-02T07:01:28.115Z,40
2017-04-02T07:02:00.419Z,40
2017-04-02T07:02:32.732Z,40
2017-04-02T07:03:05.036Z,40
2017-04-02T07:03:37.327Z,40
2017-04-02T07:04:09.627Z,40
2017-04-02T07:04:41.944Z,40
2017-04-02T07:05:14.254Z,40
2017-04-02T07:05:46.559Z,40
2017-04-02T07:06:18.906Z,40
2017-04-02T07:06:51.211Z,40
2017-04-02T07:07:23.525Z,40
2017-04-02T07:07:55.832Z,35
2017-04-02T07:08:28.140Z,35
2017-04-02T07:09:00.454Z,35
2017-04-02T07:09:32.751Z,35
2017-04-02T07:10:05.058Z,35
2017-04-02T07:10:37.357Z,35
2017-04-02T07:11:09.660Z,35
2017-04-02T07:11:41.968Z,35
2017-04-02T07:12:14.274Z,35
2017-04-02T07:12:46.566Z,35
2017-04-02T07:13:18.862Z,35
2017-04-02T07:13:51.159Z,40
2017-04-02T07:14:23.470Z,40
2017-04-02T07:14:55.790Z,40
2017-04-02T07:15:28.098Z,40
2017-04-02T07:16:00.393Z,40
2017-04-02T07:16:32.706Z,40
2017-04-02T07:17:05.048Z,40
2017-04-02T07:17:37.351Z,40
2017-04-02T07:18:09.648Z,40
2017-04-02T07:18:41.956Z,45
2017-04-02T07:19:14.259Z,45
2017-04-02T07:19:46.555Z,45
2017-04-02T07:20:18.853Z,50
2017-04-02T07:20:51.147Z,50
2017-04-02T07:21:23.456Z,55
2017-04-02T07:21:55.726Z,55
2017-04-02T07:22:28.078Z,60
2017-04-02T07:23:00.992Z,60
2017-04-02T07:23:33.241Z,65
2017-04-02T07:24:05.518Z,65
2017-04-02T07:24:37.764Z,70
2017-04-02T07:25:10.021Z,70
2017-04-02T07:25:42.267Z,70
2017-04-02T07:26:14.537Z,75
2017-04-02T07:26:46.779Z,75
2017-04-02T07:27:20.058Z,75
2017-04-02T07:27:52.306Z,75
2017-04-02T07:28:25.507Z,75
2017-04-02T07:28:57.774Z,80
2017-04-02T07:29:30.044Z,80
2017-04-02T07:30:02.289Z,80
2017-04-02T07:30:34.548Z,85
2017-04-02T07:31:06.899Z,85
2017-04-02T07:31:39.153Z,85
2017-04-02T07:32:11.445Z,85
2017-04-02T07:32:43.743Z,85
2017-04-02T07:33:16.050Z,85
2017-04-02T07:33:48.349Z,85
2017-04-02T07:34:20.653Z,85
2017-04-02T07:34:52.970Z,90
2017-04-02T07:35:25.280Z,90
2017-04-02T07:35:57.584Z,90
2017-04-02T07:36:29.891Z,90
2017-04-02T07:37:02.218Z,95
2017-04-02T07:37:34.526Z,95
2017-04-02T07:38:06.819Z,100
2017-04-02T07:38:39.117Z,110
2017-04-02T07:39:11.430Z,110
2017-04-02T07:39:43.746Z,100
2017-04-02T07:40:16.055Z,100
2017-04-02T07:40:48.353Z,100
2017-04-02T07:41:20.666Z,100
2017-04-02T07:41:52.976Z,100
2017-04-02T07:42:25.264Z,105
2017-04-02T07:42:57.572Z,100
2017-04-02T07:43:29.864Z,105
2017-04-02T07:44:02.168Z,105
2017-04-02T07:44:34.485Z,105
2017-04-02T07:45:06.798Z,110
2017-04-02T07:45:39.094Z,105
2017-04-02T07:46:11.390Z,105
2017-04-02T07:46:43.697Z,120
2017-04-02T07:47:16.019Z,115
2017-04-02T07:47:48.323Z,125
2017-04-02T07:48:20.674Z,130
2017-04-02T07:48:52.986Z,130
2017-04-02T07:49:25.274Z,110
2017-04-02T07:49:57.580Z,100
2017-04-02T07:50:29.889Z,100
2017-04-02T07:51:02.199Z,100
2017-04-02T07:51:34.501Z,105
2017-04-02T07:52:06.796Z,100
2017-04-02T07:52:39.092Z,95